sensor_id;sensor_type;location;lat;lon;timestamp;P1;durP1;ratioP1;P2;durP2;ratioP2
53497;SDS011;39382;47.168;16.008;2022-07-06T00:01:22;2.47;;;2.28;;
53497;SDS011;39382;47.168;16.008;2022-07-06T00:03:48;5.93;;;2.70;;
53497;SDS011;39382;47.168;16.008;2022-07-06T00:06:14;2.92;;;2.42;;
53497;SDS011;39382;47.168;16.008;2022-07-06T00:08:41;2.63;;;2.42;;
53497;SDS011;39382;47.168;16.008;2022-07-06T00:11:07;3.60;;;3.03;;
53497;SDS011;39382;47.168;16.008;2022-07-06T00:13:33;3.33;;;2.63;;
53497;SDS011;39382;47.168;16.008;2022-07-06T00:15:59;2.72;;;2.28;;
53497;SDS011;39382;47.168;16.008;2022-07-06T00:18:24;2.97;;;2.78;;
53497;SDS011;39382;47.168;16.008;2022-07-06T00:20:50;5.60;;;3.22;;
53497;SDS011;39382;47.168;16.008;2022-07-06T00:23:15;2.80;;;2.60;;
53497;SDS011;39382;47.168;16.008;2022-07-06T00:25:41;5.07;;;2.88;;
53497;SDS011;39382;47.168;16.008;2022-07-06T00:28:07;2.72;;;2.53;;
53497;SDS011;39382;47.168;16.008;2022-07-06T00:30:33;3.55;;;2.85;;
53497;SDS011;39382;47.168;16.008;2022-07-06T00:32:58;3.40;;;2.88;;
53497;SDS011;39382;47.168;16.008;2022-07-06T00:35:24;5.25;;;3.08;;
53497;SDS011;39382;47.168;16.008;2022-07-06T00:37:51;3.08;;;2.88;;
53497;SDS011;39382;47.168;16.008;2022-07-06T00:40:16;5.20;;;3.35;;
53497;SDS011;39382;47.168;16.008;2022-07-06T00:42:43;3.65;;;3.35;;
53497;SDS011;39382;47.168;16.008;2022-07-06T00:45:12;3.55;;;2.85;;
53497;SDS011;39382;47.168;16.008;2022-07-06T00:47:40;4.00;;;3.15;;
53497;SDS011;39382;47.168;16.008;2022-07-06T00:50:07;3.92;;;2.75;;
53497;SDS011;39382;47.168;16.008;2022-07-06T00:52:48;3.33;;;3.05;;
53497;SDS011;39382;47.168;16.008;2022-07-06T00:55:17;8.65;;;3.42;;
53497;SDS011;39382;47.168;16.008;2022-07-06T00:57:44;3.53;;;2.88;;
53497;SDS011;39382;47.168;16.008;2022-07-06T01:00:11;3.22;;;2.92;;
53497;SDS011;39382;47.168;16.008;2022-07-06T01:02:39;3.13;;;2.85;;
53497;SDS011;39382;47.168;16.008;2022-07-06T01:05:05;3.60;;;3.30;;
53497;SDS011;39382;47.168;16.008;2022-07-06T01:07:35;3.00;;;2.55;;
53497;SDS011;39382;47.168;16.008;2022-07-06T01:10:05;3.42;;;3.13;;
53497;SDS011;39382;47.168;16.008;2022-07-06T01:12:32;5.88;;;3.50;;
53497;SDS011;39382;47.168;16.008;2022-07-06T01:15:00;4.78;;;2.90;;
53497;SDS011;39382;47.168;16.008;2022-07-06T01:17:26;3.17;;;2.88;;
53497;SDS011;39382;47.168;16.008;2022-07-06T01:19:53;8.18;;;3.42;;
53497;SDS011;39382;47.168;16.008;2022-07-06T01:22:18;3.78;;;3.47;;
53497;SDS011;39382;47.168;16.008;2022-07-06T01:24:44;3.20;;;2.95;;
53497;SDS011;39382;47.168;16.008;2022-07-06T01:27:10;4.00;;;3.17;;
53497;SDS011;39382;47.168;16.008;2022-07-06T01:29:36;3.22;;;2.92;;
53497;SDS011;39382;47.168;16.008;2022-07-06T01:32:02;5.10;;;3.15;;
53497;SDS011;39382;47.168;16.008;2022-07-06T01:34:27;3.55;;;3.25;;
53497;SDS011;39382;47.168;16.008;2022-07-06T01:36:53;2.88;;;2.67;;
53497;SDS011;39382;47.168;16.008;2022-07-06T01:39:19;3.30;;;3.10;;
53497;SDS011;39382;47.168;16.008;2022-07-06T01:41:45;3.10;;;2.80;;
53497;SDS011;39382;47.168;16.008;2022-07-06T01:44:11;5.55;;;2.88;;
53497;SDS011;39382;47.168;16.008;2022-07-06T01:46:37;5.32;;;3.72;;
53497;SDS011;39382;47.168;16.008;2022-07-06T01:49:03;4.38;;;3.40;;
53497;SDS011;39382;47.168;16.008;2022-07-06T01:51:29;3.08;;;2.58;;
53497;SDS011;39382;47.168;16.008;2022-07-06T01:53:55;5.70;;;3.65;;
53497;SDS011;39382;47.168;16.008;2022-07-06T01:56:21;3.50;;;3.00;;
53497;SDS011;39382;47.168;16.008;2022-07-06T01:58:47;3.30;;;3.00;;
53497;SDS011;39382;47.168;16.008;2022-07-06T02:01:14;5.35;;;3.17;;
53497;SDS011;39382;47.168;16.008;2022-07-06T02:03:41;5.43;;;3.03;;
53497;SDS011;39382;47.168;16.008;2022-07-06T02:06:07;3.55;;;3.22;;
53497;SDS011;39382;47.168;16.008;2022-07-06T02:08:33;5.03;;;3.42;;
53497;SDS011;39382;47.168;16.008;2022-07-06T02:11:00;4.10;;;3.80;;
53497;SDS011;39382;47.168;16.008;2022-07-06T02:13:26;6.40;;;3.63;;
53497;SDS011;39382;47.168;16.008;2022-07-06T02:15:52;3.10;;;2.90;;
53497;SDS011;39382;47.168;16.008;2022-07-06T02:18:17;4.80;;;3.40;;
53497;SDS011;39382;47.168;16.008;2022-07-06T02:20:43;3.42;;;3.22;;
53497;SDS011;39382;47.168;16.008;2022-07-06T02:23:08;4.97;;;2.80;;
53497;SDS011;39382;47.168;16.008;2022-07-06T02:25:34;3.70;;;3.40;;
53497;SDS011;39382;47.168;16.008;2022-07-06T02:28:00;3.85;;;3.42;;
53497;SDS011;39382;47.168;16.008;2022-07-06T02:30:26;4.47;;;3.08;;
53497;SDS011;39382;47.168;16.008;2022-07-06T02:32:51;5.03;;;3.08;;
53497;SDS011;39382;47.168;16.008;2022-07-06T02:35:17;3.13;;;2.92;;
53497;SDS011;39382;47.168;16.008;2022-07-06T02:37:43;3.92;;;3.40;;
53497;SDS011;39382;47.168;16.008;2022-07-06T02:40:08;7.22;;;2.97;;
53497;SDS011;39382;47.168;16.008;2022-07-06T02:42:34;4.95;;;3.50;;
53497;SDS011;39382;47.168;16.008;2022-07-06T02:45:00;5.18;;;3.10;;
53497;SDS011;39382;47.168;16.008;2022-07-06T02:47:26;4.75;;;3.38;;
53497;SDS011;39382;47.168;16.008;2022-07-06T02:49:52;3.42;;;3.05;;
53497;SDS011;39382;47.168;16.008;2022-07-06T02:52:18;5.28;;;2.95;;
53497;SDS011;39382;47.168;16.008;2022-07-06T02:54:44;3.15;;;2.85;;
53497;SDS011;39382;47.168;16.008;2022-07-06T02:57:09;5.30;;;3.15;;
53497;SDS011;39382;47.168;16.008;2022-07-06T02:59:35;3.25;;;2.95;;
53497;SDS011;39382;47.168;16.008;2022-07-06T03:02:02;6.47;;;3.45;;
53497;SDS011;39382;47.168;16.008;2022-07-06T03:04:31;7.65;;;3.30;;
53497;SDS011;39382;47.168;16.008;2022-07-06T03:06:57;3.60;;;3.28;;
53497;SDS011;39382;47.168;16.008;2022-07-06T03:09:23;4.55;;;4.15;;
53497;SDS011;39382;47.168;16.008;2022-07-06T03:11:49;3.85;;;3.28;;
53497;SDS011;39382;47.168;16.008;2022-07-06T03:14:15;3.33;;;3.08;;
53497;SDS011;39382;47.168;16.008;2022-07-06T03:16:40;3.60;;;3.30;;
53497;SDS011;39382;47.168;16.008;2022-07-06T03:19:06;3.08;;;2.75;;
53497;SDS011;39382;47.168;16.008;2022-07-06T03:21:32;5.03;;;3.42;;
53497;SDS011;39382;47.168;16.008;2022-07-06T03:23:57;5.75;;;3.40;;
53497;SDS011;39382;47.168;16.008;2022-07-06T03:26:23;4.68;;;3.20;;
53497;SDS011;39382;47.168;16.008;2022-07-06T03:28:49;4.03;;;3.42;;
53497;SDS011;39382;47.168;16.008;2022-07-06T03:31:14;6.90;;;3.72;;
53497;SDS011;39382;47.168;16.008;2022-07-06T03:33:40;7.07;;;3.78;;
53497;SDS011;39382;47.168;16.008;2022-07-06T03:36:07;3.47;;;3.22;;
53497;SDS011;39382;47.168;16.008;2022-07-06T03:38:34;7.03;;;3.45;;
53497;SDS011;39382;47.168;16.008;2022-07-06T03:40:59;3.90;;;3.28;;
53497;SDS011;39382;47.168;16.008;2022-07-06T03:43:25;5.03;;;3.38;;
53497;SDS011;39382;47.168;16.008;2022-07-06T03:45:51;3.95;;;3.60;;
53497;SDS011;39382;47.168;16.008;2022-07-06T03:48:16;5.88;;;4.00;;
53497;SDS011;39382;47.168;16.008;2022-07-06T03:50:42;4.28;;;3.65;;
53497;SDS011;39382;47.168;16.008;2022-07-06T03:53:08;4.15;;;3.58;;
53497;SDS011;39382;47.168;16.008;2022-07-06T03:55:33;3.70;;;3.35;;
53497;SDS011;39382;47.168;16.008;2022-07-06T03:57:59;3.10;;;2.80;;
53497;SDS011;39382;47.168;16.008;2022-07-06T04:00:25;5.10;;;3.03;;
53497;SDS011;39382;47.168;16.008;2022-07-06T04:02:51;4.32;;;3.20;;
53497;SDS011;39382;47.168;16.008;2022-07-06T04:05:16;11.63;;;3.33;;
53497;SDS011;39382;47.168;16.008;2022-07-06T04:07:49;4.15;;;3.28;;
53497;SDS011;39382;47.168;16.008;2022-07-06T04:10:15;3.92;;;3.50;;
53497;SDS011;39382;47.168;16.008;2022-07-06T04:12:42;3.50;;;3.08;;
53497;SDS011;39382;47.168;16.008;2022-07-06T04:15:09;7.13;;;3.10;;
53497;SDS011;39382;47.168;16.008;2022-07-06T04:17:35;3.22;;;2.90;;
53497;SDS011;39382;47.168;16.008;2022-07-06T04:20:17;4.43;;;3.50;;
53497;SDS011;39382;47.168;16.008;2022-07-06T04:22:42;8.13;;;3.20;;
53497;SDS011;39382;47.168;16.008;2022-07-06T04:25:08;6.75;;;3.38;;
53497;SDS011;39382;47.168;16.008;2022-07-06T04:27:34;3.70;;;3.25;;
53497;SDS011;39382;47.168;16.008;2022-07-06T04:30:00;5.95;;;3.05;;
53497;SDS011;39382;47.168;16.008;2022-07-06T04:32:26;3.67;;;3.33;;
53497;SDS011;39382;47.168;16.008;2022-07-06T04:34:52;3.20;;;3.00;;
53497;SDS011;39382;47.168;16.008;2022-07-06T04:37:18;3.67;;;3.38;;
53497;SDS011;39382;47.168;16.008;2022-07-06T04:39:43;2.90;;;2.70;;
53497;SDS011;39382;47.168;16.008;2022-07-06T04:42:09;4.60;;;2.90;;
53497;SDS011;39382;47.168;16.008;2022-07-06T04:44:34;5.03;;;3.80;;
53497;SDS011;39382;47.168;16.008;2022-07-06T04:47:00;3.63;;;3.33;;
53497;SDS011;39382;47.168;16.008;2022-07-06T04:49:26;3.42;;;2.80;;
53497;SDS011;39382;47.168;16.008;2022-07-06T04:51:51;5.43;;;3.00;;
53497;SDS011;39382;47.168;16.008;2022-07-06T04:54:17;3.25;;;2.92;;
53497;SDS011;39382;47.168;16.008;2022-07-06T04:56:43;6.50;;;3.58;;
53497;SDS011;39382;47.168;16.008;2022-07-06T04:59:08;6.47;;;2.92;;
53497;SDS011;39382;47.168;16.008;2022-07-06T05:01:34;4.20;;;2.55;;
53497;SDS011;39382;47.168;16.008;2022-07-06T05:03:59;4.65;;;2.55;;
53497;SDS011;39382;47.168;16.008;2022-07-06T05:06:25;2.67;;;2.47;;
53497;SDS011;39382;47.168;16.008;2022-07-06T05:08:51;2.90;;;2.70;;
53497;SDS011;39382;47.168;16.008;2022-07-06T05:11:16;2.83;;;2.42;;
53497;SDS011;39382;47.168;16.008;2022-07-06T05:13:42;4.20;;;2.55;;
53497;SDS011;39382;47.168;16.008;2022-07-06T05:16:08;2.95;;;2.55;;
53497;SDS011;39382;47.168;16.008;2022-07-06T05:18:34;4.72;;;2.72;;
53497;SDS011;39382;47.168;16.008;2022-07-06T05:20:59;3.47;;;2.33;;
53497;SDS011;39382;47.168;16.008;2022-07-06T05:23:25;2.33;;;2.13;;
53497;SDS011;39382;47.168;16.008;2022-07-06T05:25:51;3.88;;;2.92;;
53497;SDS011;39382;47.168;16.008;2022-07-06T05:28:17;4.20;;;2.30;;
53497;SDS011;39382;47.168;16.008;2022-07-06T05:30:43;2.88;;;2.67;;
53497;SDS011;39382;47.168;16.008;2022-07-06T05:33:08;3.50;;;2.95;;
53497;SDS011;39382;47.168;16.008;2022-07-06T05:35:34;9.02;;;2.97;;
53497;SDS011;39382;47.168;16.008;2022-07-06T05:38:00;3.42;;;2.78;;
53497;SDS011;39382;47.168;16.008;2022-07-06T05:40:25;3.83;;;2.70;;
53497;SDS011;39382;47.168;16.008;2022-07-06T05:42:51;3.95;;;2.83;;
53497;SDS011;39382;47.168;16.008;2022-07-06T05:45:16;3.97;;;3.67;;
53497;SDS011;39382;47.168;16.008;2022-07-06T05:47:42;4.03;;;3.65;;
53497;SDS011;39382;47.168;16.008;2022-07-06T05:50:26;3.08;;;2.78;;
53497;SDS011;39382;47.168;16.008;2022-07-06T05:52:56;2.67;;;2.47;;
53497;SDS011;39382;47.168;16.008;2022-07-06T05:55:26;3.97;;;2.95;;
53497;SDS011;39382;47.168;16.008;2022-07-06T05:57:51;5.50;;;3.35;;
53497;SDS011;39382;47.168;16.008;2022-07-06T06:00:19;4.80;;;3.72;;
53497;SDS011;39382;47.168;16.008;2022-07-06T06:02:46;4.13;;;2.40;;
53497;SDS011;39382;47.168;16.008;2022-07-06T06:05:13;3.50;;;2.55;;
53497;SDS011;39382;47.168;16.008;2022-07-06T06:07:39;2.83;;;2.28;;
53497;SDS011;39382;47.168;16.008;2022-07-06T06:10:09;3.78;;;2.60;;
53497;SDS011;39382;47.168;16.008;2022-07-06T06:12:37;2.67;;;2.50;;
53497;SDS011;39382;47.168;16.008;2022-07-06T06:15:03;2.05;;;1.83;;
53497;SDS011;39382;47.168;16.008;2022-07-06T06:17:30;2.88;;;2.05;;
53497;SDS011;39382;47.168;16.008;2022-07-06T06:19:56;3.63;;;2.10;;
53497;SDS011;39382;47.168;16.008;2022-07-06T06:22:23;3.92;;;2.00;;
53497;SDS011;39382;47.168;16.008;2022-07-06T06:24:49;5.65;;;2.63;;
53497;SDS011;39382;47.168;16.008;2022-07-06T06:27:14;4.57;;;2.33;;
53497;SDS011;39382;47.168;16.008;2022-07-06T06:29:40;1.77;;;1.67;;
53497;SDS011;39382;47.168;16.008;2022-07-06T06:32:07;1.73;;;1.63;;
53497;SDS011;39382;47.168;16.008;2022-07-06T06:34:32;6.70;;;2.00;;
53497;SDS011;39382;47.168;16.008;2022-07-06T06:36:58;1.50;;;1.40;;
53497;SDS011;39382;47.168;16.008;2022-07-06T06:39:24;4.85;;;1.60;;
53497;SDS011;39382;47.168;16.008;2022-07-06T06:41:49;5.57;;;1.50;;
53497;SDS011;39382;47.168;16.008;2022-07-06T06:44:15;2.90;;;1.83;;
53497;SDS011;39382;47.168;16.008;2022-07-06T06:46:42;2.08;;;1.60;;
53497;SDS011;39382;47.168;16.008;2022-07-06T06:49:08;2.88;;;1.75;;
53497;SDS011;39382;47.168;16.008;2022-07-06T06:51:34;4.72;;;1.75;;
53497;SDS011;39382;47.168;16.008;2022-07-06T06:54:00;1.58;;;1.42;;
53497;SDS011;39382;47.168;16.008;2022-07-06T06:56:26;2.38;;;1.30;;
53497;SDS011;39382;47.168;16.008;2022-07-06T06:58:52;1.70;;;1.60;;
53497;SDS011;39382;47.168;16.008;2022-07-06T07:01:17;2.80;;;2.05;;
53497;SDS011;39382;47.168;16.008;2022-07-06T07:03:43;3.47;;;1.20;;
53497;SDS011;39382;47.168;16.008;2022-07-06T07:06:09;1.35;;;1.20;;
53497;SDS011;39382;47.168;16.008;2022-07-06T07:08:34;1.50;;;1.35;;
53497;SDS011;39382;47.168;16.008;2022-07-06T07:11:00;1.92;;;1.67;;
53497;SDS011;39382;47.168;16.008;2022-07-06T07:13:26;2.30;;;1.38;;
53497;SDS011;39382;47.168;16.008;2022-07-06T07:15:51;6.82;;;1.05;;
53497;SDS011;39382;47.168;16.008;2022-07-06T07:18:17;1.25;;;1.15;;
53497;SDS011;39382;47.168;16.008;2022-07-06T07:20:43;1.05;;;0.90;;
53497;SDS011;39382;47.168;16.008;2022-07-06T07:23:08;0.80;;;0.80;;
53497;SDS011;39382;47.168;16.008;2022-07-06T07:25:34;0.70;;;0.70;;
53497;SDS011;39382;47.168;16.008;2022-07-06T07:27:59;0.95;;;0.75;;
53497;SDS011;39382;47.168;16.008;2022-07-06T07:30:25;1.10;;;0.73;;
53497;SDS011;39382;47.168;16.008;2022-07-06T07:32:51;0.88;;;0.88;;
53497;SDS011;39382;47.168;16.008;2022-07-06T07:35:17;1.10;;;1.00;;
53497;SDS011;39382;47.168;16.008;2022-07-06T07:37:42;3.00;;;0.73;;
53497;SDS011;39382;47.168;16.008;2022-07-06T07:40:08;0.80;;;0.80;;
53497;SDS011;39382;47.168;16.008;2022-07-06T07:42:34;1.77;;;1.10;;
53497;SDS011;39382;47.168;16.008;2022-07-06T07:45:00;1.38;;;1.25;;
53497;SDS011;39382;47.168;16.008;2022-07-06T07:47:26;0.93;;;0.93;;
53497;SDS011;39382;47.168;16.008;2022-07-06T07:49:52;1.80;;;0.80;;
53497;SDS011;39382;47.168;16.008;2022-07-06T07:52:17;1.00;;;0.90;;
53497;SDS011;39382;47.168;16.008;2022-07-06T07:54:43;3.67;;;0.50;;
53497;SDS011;39382;47.168;16.008;2022-07-06T07:57:09;1.90;;;0.73;;
53497;SDS011;39382;47.168;16.008;2022-07-06T07:59:35;1.63;;;1.00;;
53497;SDS011;39382;47.168;16.008;2022-07-06T08:02:01;2.25;;;0.80;;
53497;SDS011;39382;47.168;16.008;2022-07-06T08:04:26;0.73;;;0.70;;
53497;SDS011;39382;47.168;16.008;2022-07-06T08:06:52;1.85;;;0.70;;
53497;SDS011;39382;47.168;16.008;2022-07-06T08:09:17;2.15;;;0.95;;
53497;SDS011;39382;47.168;16.008;2022-07-06T08:11:44;3.28;;;0.90;;
53497;SDS011;39382;47.168;16.008;2022-07-06T08:14:10;1.02;;;0.93;;
53497;SDS011;39382;47.168;16.008;2022-07-06T08:16:36;1.70;;;1.42;;
53497;SDS011;39382;47.168;16.008;2022-07-06T08:19:02;2.85;;;0.82;;
53497;SDS011;39382;47.168;16.008;2022-07-06T08:21:27;3.35;;;1.25;;
53497;SDS011;39382;47.168;16.008;2022-07-06T08:23:54;1.23;;;0.73;;
53497;SDS011;39382;47.168;16.008;2022-07-06T08:26:20;1.10;;;0.68;;
53497;SDS011;39382;47.168;16.008;2022-07-06T08:28:46;1.80;;;0.85;;
53497;SDS011;39382;47.168;16.008;2022-07-06T08:31:12;2.42;;;1.10;;
53497;SDS011;39382;47.168;16.008;2022-07-06T08:33:38;0.80;;;0.80;;
53497;SDS011;39382;47.168;16.008;2022-07-06T08:36:04;0.50;;;0.50;;
53497;SDS011;39382;47.168;16.008;2022-07-06T08:38:30;1.45;;;0.50;;
53497;SDS011;39382;47.168;16.008;2022-07-06T08:40:55;4.80;;;0.90;;
53497;SDS011;39382;47.168;16.008;2022-07-06T08:43:22;3.72;;;0.85;;
53497;SDS011;39382;47.168;16.008;2022-07-06T08:45:48;1.08;;;0.60;;
53497;SDS011;39382;47.168;16.008;2022-07-06T08:48:15;2.25;;;0.70;;
53497;SDS011;39382;47.168;16.008;2022-07-06T08:50:43;1.33;;;0.70;;
53497;SDS011;39382;47.168;16.008;2022-07-06T08:53:09;0.80;;;0.80;;
53497;SDS011;39382;47.168;16.008;2022-07-06T08:55:34;0.98;;;0.90;;
53497;SDS011;39382;47.168;16.008;2022-07-06T08:58:01;0.57;;;0.57;;
53497;SDS011;39382;47.168;16.008;2022-07-06T09:00:27;4.15;;;3.15;;
53497;SDS011;39382;47.168;16.008;2022-07-06T09:02:52;2.75;;;0.85;;
53497;SDS011;39382;47.168;16.008;2022-07-06T09:05:22;1.05;;;0.95;;
53497;SDS011;39382;47.168;16.008;2022-07-06T09:07:51;0.80;;;0.80;;
53497;SDS011;39382;47.168;16.008;2022-07-06T09:10:18;1.13;;;0.80;;
53497;SDS011;39382;47.168;16.008;2022-07-06T09:12:46;0.80;;;0.80;;
53497;SDS011;39382;47.168;16.008;2022-07-06T09:15:11;2.17;;;0.65;;
53497;SDS011;39382;47.168;16.008;2022-07-06T09:17:38;4.80;;;0.93;;
53497;SDS011;39382;47.168;16.008;2022-07-06T09:20:07;3.50;;;0.80;;
53497;SDS011;39382;47.168;16.008;2022-07-06T09:22:34;2.33;;;0.98;;
53497;SDS011;39382;47.168;16.008;2022-07-06T09:27:29;2.53;;;0.73;;
53497;SDS011;39382;47.168;16.008;2022-07-06T09:29:54;0.93;;;0.93;;
53497;SDS011;39382;47.168;16.008;2022-07-06T09:32:25;1.13;;;0.60;;
53497;SDS011;39382;47.168;16.008;2022-07-06T09:34:50;1.95;;;0.75;;
53497;SDS011;39382;47.168;16.008;2022-07-06T09:37:16;1.75;;;0.63;;
53497;SDS011;39382;47.168;16.008;2022-07-06T09:39:42;0.70;;;0.70;;
53497;SDS011;39382;47.168;16.008;2022-07-06T09:42:09;0.75;;;0.70;;
53497;SDS011;39382;47.168;16.008;2022-07-06T09:44:36;2.72;;;0.95;;
53497;SDS011;39382;47.168;16.008;2022-07-06T09:47:07;2.90;;;0.80;;
53497;SDS011;39382;47.168;16.008;2022-07-06T09:49:34;1.65;;;0.65;;
53497;SDS011;39382;47.168;16.008;2022-07-06T09:52:05;3.97;;;0.73;;
53497;SDS011;39382;47.168;16.008;2022-07-06T09:54:33;0.75;;;0.75;;
53497;SDS011;39382;47.168;16.008;2022-07-06T09:57:00;1.95;;;0.60;;
53497;SDS011;39382;47.168;16.008;2022-07-06T09:59:27;0.47;;;0.47;;
53497;SDS011;39382;47.168;16.008;2022-07-06T10:01:59;0.90;;;0.57;;
53497;SDS011;39382;47.168;16.008;2022-07-06T10:04:27;0.90;;;0.70;;
53497;SDS011;39382;47.168;16.008;2022-07-06T10:06:53;0.70;;;0.70;;
53497;SDS011;39382;47.168;16.008;2022-07-06T10:09:21;0.65;;;0.65;;
53497;SDS011;39382;47.168;16.008;2022-07-06T10:11:49;0.93;;;0.68;;
53497;SDS011;39382;47.168;16.008;2022-07-06T10:14:20;0.90;;;0.80;;
53497;SDS011;39382;47.168;16.008;2022-07-06T10:16:48;1.38;;;0.77;;
53497;SDS011;39382;47.168;16.008;2022-07-06T10:19:15;0.50;;;0.50;;
53497;SDS011;39382;47.168;16.008;2022-07-06T10:21:42;1.25;;;0.50;;
53497;SDS011;39382;47.168;16.008;2022-07-06T10:24:09;0.80;;;0.52;;
53497;SDS011;39382;47.168;16.008;2022-07-06T10:26:36;0.50;;;0.50;;
53497;SDS011;39382;47.168;16.008;2022-07-06T10:29:02;2.10;;;0.65;;
53497;SDS011;39382;47.168;16.008;2022-07-06T10:31:29;1.23;;;0.63;;
53497;SDS011;39382;47.168;16.008;2022-07-06T10:33:57;7.13;;;0.80;;
53497;SDS011;39382;47.168;16.008;2022-07-06T10:36:24;1.88;;;0.50;;
53497;SDS011;39382;47.168;16.008;2022-07-06T10:38:51;0.60;;;0.60;;
53497;SDS011;39382;47.168;16.008;2022-07-06T10:41:17;0.45;;;0.35;;
53497;SDS011;39382;47.168;16.008;2022-07-06T10:43:47;0.45;;;0.45;;
53497;SDS011;39382;47.168;16.008;2022-07-06T10:46:16;1.40;;;0.52;;
53497;SDS011;39382;47.168;16.008;2022-07-06T10:48:44;0.25;;;0.25;;
53497;SDS011;39382;47.168;16.008;2022-07-06T10:51:32;2.75;;;0.40;;
53497;SDS011;39382;47.168;16.008;2022-07-06T10:54:04;2.72;;;0.55;;
53497;SDS011;39382;47.168;16.008;2022-07-06T10:56:35;1.02;;;0.32;;
53497;SDS011;39382;47.168;16.008;2022-07-06T10:59:11;0.40;;;0.40;;
53497;SDS011;39382;47.168;16.008;2022-07-06T11:01:38;0.60;;;0.50;;
53497;SDS011;39382;47.168;16.008;2022-07-06T11:04:05;0.95;;;0.73;;
53497;SDS011;39382;47.168;16.008;2022-07-06T11:06:37;0.43;;;0.43;;
53497;SDS011;39382;47.168;16.008;2022-07-06T11:09:05;0.63;;;0.47;;
53497;SDS011;39382;47.168;16.008;2022-07-06T11:16:33;1.58;;;0.77;;
53497;SDS011;39382;47.168;16.008;2022-07-06T11:24:31;0.52;;;0.40;;
53497;SDS011;39382;47.168;16.008;2022-07-06T11:26:59;0.35;;;0.35;;
53497;SDS011;39382;47.168;16.008;2022-07-06T11:29:27;0.43;;;0.28;;
53497;SDS011;39382;47.168;16.008;2022-07-06T11:31:55;0.57;;;0.45;;
53497;SDS011;39382;47.168;16.008;2022-07-06T11:36:55;0.40;;;0.40;;
53497;SDS011;39382;47.168;16.008;2022-07-06T11:39:26;0.10;;;0.10;;
53497;SDS011;39382;47.168;16.008;2022-07-06T11:41:54;0.98;;;0.30;;
53497;SDS011;39382;47.168;16.008;2022-07-06T11:44:20;0.25;;;0.25;;
53497;SDS011;39382;47.168;16.008;2022-07-06T11:46:46;0.30;;;0.30;;
53497;SDS011;39382;47.168;16.008;2022-07-06T11:49:12;0.63;;;0.32;;
53497;SDS011;39382;47.168;16.008;2022-07-06T11:51:40;0.63;;;0.30;;
53497;SDS011;39382;47.168;16.008;2022-07-06T11:54:09;2.35;;;0.47;;
53497;SDS011;39382;47.168;16.008;2022-07-06T11:56:45;0.30;;;0.30;;
53497;SDS011;39382;47.168;16.008;2022-07-06T11:59:22;0.30;;;0.30;;
53497;SDS011;39382;47.168;16.008;2022-07-06T12:01:57;0.20;;;0.20;;
53497;SDS011;39382;47.168;16.008;2022-07-06T12:04:24;0.90;;;0.60;;
53497;SDS011;39382;47.168;16.008;2022-07-06T12:06:50;0.63;;;0.32;;
53497;SDS011;39382;47.168;16.008;2022-07-06T12:09:16;0.80;;;0.45;;
53497;SDS011;39382;47.168;16.008;2022-07-06T12:11:44;0.30;;;0.30;;
53497;SDS011;39382;47.168;16.008;2022-07-06T12:14:18;0.55;;;0.50;;
53497;SDS011;39382;47.168;16.008;2022-07-06T12:16:45;1.52;;;0.65;;
53497;SDS011;39382;47.168;16.008;2022-07-06T12:19:13;0.60;;;0.60;;
53497;SDS011;39382;47.168;16.008;2022-07-06T12:21:48;0.35;;;0.35;;
53497;SDS011;39382;47.168;16.008;2022-07-06T12:24:23;0.40;;;0.40;;
53497;SDS011;39382;47.168;16.008;2022-07-06T12:26:50;1.30;;;0.52;;
53497;SDS011;39382;47.168;16.008;2022-07-06T12:29:16;5.68;;;0.43;;
53497;SDS011;39382;47.168;16.008;2022-07-06T12:31:44;0.30;;;0.30;;
53497;SDS011;39382;47.168;16.008;2022-07-06T12:36:48;1.17;;;0.47;;
53497;SDS011;39382;47.168;16.008;2022-07-06T12:39:16;1.50;;;0.40;;
53497;SDS011;39382;47.168;16.008;2022-07-06T12:41:55;1.10;;;0.30;;
53497;SDS011;39382;47.168;16.008;2022-07-06T12:44:28;0.60;;;0.30;;
53497;SDS011;39382;47.168;16.008;2022-07-06T12:47:07;0.30;;;0.30;;
53497;SDS011;39382;47.168;16.008;2022-07-06T12:49:34;0.63;;;0.28;;
53497;SDS011;39382;47.168;16.008;2022-07-06T12:52:02;0.98;;;0.28;;
53497;SDS011;39382;47.168;16.008;2022-07-06T12:54:47;0.50;;;0.45;;
53497;SDS011;39382;47.168;16.008;2022-07-06T12:57:23;1.10;;;0.43;;
53497;SDS011;39382;47.168;16.008;2022-07-06T13:02:19;0.65;;;0.28;;
53497;SDS011;39382;47.168;16.008;2022-07-06T13:05:02;0.35;;;0.30;;
53497;SDS011;39382;47.168;16.008;2022-07-06T13:07:35;0.47;;;0.30;;
53497;SDS011;39382;47.168;16.008;2022-07-06T13:10:12;0.30;;;0.30;;
53497;SDS011;39382;47.168;16.008;2022-07-06T13:12:39;0.32;;;0.32;;
53497;SDS011;39382;47.168;16.008;2022-07-06T13:15:05;0.82;;;0.40;;
53497;SDS011;39382;47.168;16.008;2022-07-06T13:17:32;0.47;;;0.30;;
53497;SDS011;39382;47.168;16.008;2022-07-06T13:19:58;0.45;;;0.40;;
53497;SDS011;39382;47.168;16.008;2022-07-06T13:22:25;2.33;;;0.65;;
53497;SDS011;39382;47.168;16.008;2022-07-06T13:24:51;1.00;;;0.40;;
53497;SDS011;39382;47.168;16.008;2022-07-06T13:27:17;0.57;;;0.43;;
53497;SDS011;39382;47.168;16.008;2022-07-06T13:29:42;1.48;;;0.50;;
53497;SDS011;39382;47.168;16.008;2022-07-06T13:32:08;1.35;;;0.60;;
53497;SDS011;39382;47.168;16.008;2022-07-06T13:34:34;2.83;;;0.40;;
53497;SDS011;39382;47.168;16.008;2022-07-06T13:37:03;0.47;;;0.47;;
53497;SDS011;39382;47.168;16.008;2022-07-06T13:39:29;0.52;;;0.40;;
53497;SDS011;39382;47.168;16.008;2022-07-06T13:41:55;0.30;;;0.30;;
53497;SDS011;39382;47.168;16.008;2022-07-06T13:44:21;2.08;;;0.40;;
53497;SDS011;39382;47.168;16.008;2022-07-06T13:46:47;3.50;;;0.65;;
53497;SDS011;39382;47.168;16.008;2022-07-06T13:49:13;0.30;;;0.30;;
53497;SDS011;39382;47.168;16.008;2022-07-06T13:51:38;0.40;;;0.40;;
53497;SDS011;39382;47.168;16.008;2022-07-06T13:54:04;1.55;;;0.30;;
53497;SDS011;39382;47.168;16.008;2022-07-06T13:56:31;0.73;;;0.73;;
53497;SDS011;39382;47.168;16.008;2022-07-06T13:58:56;0.50;;;0.50;;
53497;SDS011;39382;47.168;16.008;2022-07-06T14:01:22;0.43;;;0.43;;
53497;SDS011;39382;47.168;16.008;2022-07-06T14:03:48;0.32;;;0.30;;
53497;SDS011;39382;47.168;16.008;2022-07-06T14:06:14;1.33;;;0.63;;
53497;SDS011;39382;47.168;16.008;2022-07-06T14:08:41;0.30;;;0.30;;
53497;SDS011;39382;47.168;16.008;2022-07-06T14:11:07;0.70;;;0.70;;
53497;SDS011;39382;47.168;16.008;2022-07-06T14:13:34;0.93;;;0.50;;
53497;SDS011;39382;47.168;16.008;2022-07-06T14:16:01;1.00;;;0.30;;
53497;SDS011;39382;47.168;16.008;2022-07-06T14:18:27;0.43;;;0.43;;
53497;SDS011;39382;47.168;16.008;2022-07-06T14:20:53;1.40;;;0.55;;
53497;SDS011;39382;47.168;16.008;2022-07-06T14:23:19;0.55;;;0.50;;
53497;SDS011;39382;47.168;16.008;2022-07-06T14:25:45;1.40;;;0.60;;
53497;SDS011;39382;47.168;16.008;2022-07-06T14:28:11;0.57;;;0.50;;
53497;SDS011;39382;47.168;16.008;2022-07-06T14:30:42;0.40;;;0.40;;
53497;SDS011;39382;47.168;16.008;2022-07-06T14:33:09;0.85;;;0.38;;
53497;SDS011;39382;47.168;16.008;2022-07-06T14:35:36;0.55;;;0.55;;
53497;SDS011;39382;47.168;16.008;2022-07-06T14:38:07;0.35;;;0.35;;
53497;SDS011;39382;47.168;16.008;2022-07-06T14:40:34;2.70;;;0.55;;
53497;SDS011;39382;47.168;16.008;2022-07-06T14:43:01;0.30;;;0.30;;
53497;SDS011;39382;47.168;16.008;2022-07-06T14:45:27;1.92;;;0.63;;
53497;SDS011;39382;47.168;16.008;2022-07-06T14:47:53;1.15;;;0.60;;
53497;SDS011;39382;47.168;16.008;2022-07-06T14:50:19;0.52;;;0.50;;
53497;SDS011;39382;47.168;16.008;2022-07-06T14:52:48;0.43;;;0.43;;